Amalga, Utah
Current Conditions -  °F | °C
As of 12:51 PM on Monday 22 Dec 2014 (Local Time) from KLGU Reporting Station
Overcast Overcast  
Wind Chill: 33°   Ceiling: 3300
Heat Index: 41°   Visibility: 10mi
Dew Point: 31°   Wind: 16mph
Humidity: 67%   Direction: 320°NW
Pressure: 29.99"   Gusts: NA
Location:  41.8466°N, 111.898°W
Report Text: KLGU 221951Z AUTO 32014KT 10SM OVC033 05/M01 A2999 RMK AO2 SLP153 T00501006
Loading
Personal Weather Stations






























Interactive Weather Map New forecast layout! Learn more

10-Day Weather Forecast

Advertisements
Track Severe Weather on mobile